sensor_id;sensor_type;location;lat;lon;timestamp;P1;durP1;ratioP1;P2;durP2;ratioP2
64791;SDS011;51226;47.504;19.074;2023-02-28T00:01:02;17.27;;;12.57;;
64791;SDS011;51226;47.504;19.074;2023-02-28T00:04:05;18.60;;;12.18;;
64791;SDS011;51226;47.504;19.074;2023-02-28T00:07:08;17.55;;;12.32;;
64791;SDS011;51226;47.504;19.074;2023-02-28T00:10:11;20.65;;;13.27;;
64791;SDS011;51226;47.504;19.074;2023-02-28T00:13:17;17.45;;;13.20;;
64791;SDS011;51226;47.504;19.074;2023-02-28T00:16:21;17.40;;;12.27;;
64791;SDS011;51226;47.504;19.074;2023-02-28T00:19:25;19.77;;;13.55;;
64791;SDS011;51226;47.504;19.074;2023-02-28T00:22:28;17.05;;;12.32;;
64791;SDS011;51226;47.504;19.074;2023-02-28T00:25:31;20.05;;;13.40;;
64791;SDS011;51226;47.504;19.074;2023-02-28T00:28:33;21.52;;;13.57;;
64791;SDS011;51226;47.504;19.074;2023-02-28T00:31:36;19.67;;;12.80;;
64791;SDS011;51226;47.504;19.074;2023-02-28T00:34:39;19.52;;;12.65;;
64791;SDS011;51226;47.504;19.074;2023-02-28T00:37:43;20.37;;;13.98;;
64791;SDS011;51226;47.504;19.074;2023-02-28T00:40:46;19.35;;;13.18;;
64791;SDS011;51226;47.504;19.074;2023-02-28T00:43:49;17.60;;;13.13;;
64791;SDS011;51226;47.504;19.074;2023-02-28T00:46:52;16.80;;;12.20;;
64791;SDS011;51226;47.504;19.074;2023-02-28T00:49:59;17.87;;;13.65;;
64791;SDS011;51226;47.504;19.074;2023-02-28T00:53:03;16.92;;;13.15;;
64791;SDS011;51226;47.504;19.074;2023-02-28T00:56:05;16.92;;;12.82;;
64791;SDS011;51226;47.504;19.074;2023-02-28T00:59:09;18.10;;;13.25;;
64791;SDS011;51226;47.504;19.074;2023-02-28T01:02:11;17.73;;;12.90;;
64791;SDS011;51226;47.504;19.074;2023-02-28T01:05:14;20.80;;;13.40;;
64791;SDS011;51226;47.504;19.074;2023-02-28T01:08:17;20.88;;;12.90;;
64791;SDS011;51226;47.504;19.074;2023-02-28T01:11:20;20.70;;;14.45;;
64791;SDS011;51226;47.504;19.074;2023-02-28T01:14:23;17.50;;;13.48;;
64791;SDS011;51226;47.504;19.074;2023-02-28T01:17:26;18.83;;;12.95;;
64791;SDS011;51226;47.504;19.074;2023-02-28T01:20:29;19.20;;;14.20;;
64791;SDS011;51226;47.504;19.074;2023-02-28T01:23:31;19.37;;;14.32;;
64791;SDS011;51226;47.504;19.074;2023-02-28T01:26:35;18.65;;;13.40;;
64791;SDS011;51226;47.504;19.074;2023-02-28T01:29:41;21.62;;;13.35;;
64791;SDS011;51226;47.504;19.074;2023-02-28T01:32:44;15.45;;;12.32;;
64791;SDS011;51226;47.504;19.074;2023-02-28T01:35:47;22.02;;;13.10;;
64791;SDS011;51226;47.504;19.074;2023-02-28T01:38:50;17.48;;;12.43;;
64791;SDS011;51226;47.504;19.074;2023-02-28T01:41:55;16.67;;;13.07;;
64791;SDS011;51226;47.504;19.074;2023-02-28T01:48:26;17.40;;;11.90;;
64791;SDS011;51226;47.504;19.074;2023-02-28T01:51:35;17.67;;;13.13;;
64791;SDS011;51226;47.504;19.074;2023-02-28T01:54:50;18.35;;;12.60;;
64791;SDS011;51226;47.504;19.074;2023-02-28T01:57:57;15.68;;;13.23;;
64791;SDS011;51226;47.504;19.074;2023-02-28T02:01:02;16.92;;;12.52;;
64791;SDS011;51226;47.504;19.074;2023-02-28T02:04:08;18.62;;;13.95;;
64791;SDS011;51226;47.504;19.074;2023-02-28T02:07:10;17.37;;;13.43;;
64791;SDS011;51226;47.504;19.074;2023-02-28T02:10:19;18.83;;;13.02;;
64791;SDS011;51226;47.504;19.074;2023-02-28T02:26:52;14.43;;;11.77;;
64791;SDS011;51226;47.504;19.074;2023-02-28T02:36:48;17.10;;;12.67;;
64791;SDS011;51226;47.504;19.074;2023-02-28T02:46:48;19.80;;;13.02;;
64791;SDS011;51226;47.504;19.074;2023-02-28T02:49:54;17.65;;;13.23;;
64791;SDS011;51226;47.504;19.074;2023-02-28T02:53:00;19.23;;;14.20;;
64791;SDS011;51226;47.504;19.074;2023-02-28T02:56:06;17.58;;;13.35;;
64791;SDS011;51226;47.504;19.074;2023-02-28T02:59:11;20.35;;;13.40;;
64791;SDS011;51226;47.504;19.074;2023-02-28T03:02:16;16.95;;;13.32;;
64791;SDS011;51226;47.504;19.074;2023-02-28T03:05:22;17.33;;;13.73;;
64791;SDS011;51226;47.504;19.074;2023-02-28T03:08:33;20.92;;;13.68;;
64791;SDS011;51226;47.504;19.074;2023-02-28T03:11:38;20.92;;;14.13;;
64791;SDS011;51226;47.504;19.074;2023-02-28T03:22:04;18.73;;;13.82;;
64791;SDS011;51226;47.504;19.074;2023-02-28T03:25:25;17.50;;;12.65;;
64791;SDS011;51226;47.504;19.074;2023-02-28T03:28:43;22.10;;;13.55;;
64791;SDS011;51226;47.504;19.074;2023-02-28T03:31:52;16.20;;;12.88;;
64791;SDS011;51226;47.504;19.074;2023-02-28T03:35:22;18.00;;;12.65;;
64791;SDS011;51226;47.504;19.074;2023-02-28T03:41:38;15.07;;;9.80;;
64791;SDS011;51226;47.504;19.074;2023-02-28T03:44:56;16.12;;;11.43;;
64791;SDS011;51226;47.504;19.074;2023-02-28T03:48:20;12.75;;;10.40;;
64791;SDS011;51226;47.504;19.074;2023-02-28T03:51:28;13.77;;;10.48;;
64791;SDS011;51226;47.504;19.074;2023-02-28T03:54:33;16.83;;;12.10;;
64791;SDS011;51226;47.504;19.074;2023-02-28T03:58:27;18.12;;;11.00;;
64791;SDS011;51226;47.504;19.074;2023-02-28T04:01:35;13.00;;;9.80;;
64791;SDS011;51226;47.504;19.074;2023-02-28T04:04:41;13.77;;;11.02;;
64791;SDS011;51226;47.504;19.074;2023-02-28T04:07:51;12.55;;;10.50;;
64791;SDS011;51226;47.504;19.074;2023-02-28T04:11:00;16.12;;;10.13;;
64791;SDS011;51226;47.504;19.074;2023-02-28T04:14:09;12.73;;;10.18;;
64791;SDS011;51226;47.504;19.074;2023-02-28T04:17:13;13.95;;;9.70;;
64791;SDS011;51226;47.504;19.074;2023-02-28T04:20:16;13.18;;;9.48;;
64791;SDS011;51226;47.504;19.074;2023-02-28T04:23:19;11.85;;;9.10;;
64791;SDS011;51226;47.504;19.074;2023-02-28T04:26:21;14.50;;;9.75;;
64791;SDS011;51226;47.504;19.074;2023-02-28T04:29:26;10.98;;;8.93;;
64791;SDS011;51226;47.504;19.074;2023-02-28T04:32:30;14.80;;;9.77;;
64791;SDS011;51226;47.504;19.074;2023-02-28T04:35:33;12.40;;;9.18;;
64791;SDS011;51226;47.504;19.074;2023-02-28T04:38:36;14.80;;;9.07;;
64791;SDS011;51226;47.504;19.074;2023-02-28T04:41:40;11.80;;;9.20;;
64791;SDS011;51226;47.504;19.074;2023-02-28T04:44:43;13.07;;;8.98;;
64791;SDS011;51226;47.504;19.074;2023-02-28T04:47:46;14.60;;;8.93;;
64791;SDS011;51226;47.504;19.074;2023-02-28T04:50:49;12.52;;;9.27;;
64791;SDS011;51226;47.504;19.074;2023-02-28T04:53:52;12.35;;;8.98;;
64791;SDS011;51226;47.504;19.074;2023-02-28T04:56:55;13.35;;;9.48;;
64791;SDS011;51226;47.504;19.074;2023-02-28T04:59:58;13.48;;;9.45;;
64791;SDS011;51226;47.504;19.074;2023-02-28T05:03:01;12.48;;;8.63;;
64791;SDS011;51226;47.504;19.074;2023-02-28T05:06:04;10.30;;;8.15;;
64791;SDS011;51226;47.504;19.074;2023-02-28T05:09:08;14.65;;;7.93;;
64791;SDS011;51226;47.504;19.074;2023-02-28T05:12:10;11.52;;;8.10;;
64791;SDS011;51226;47.504;19.074;2023-02-28T05:15:14;10.65;;;8.90;;
64791;SDS011;51226;47.504;19.074;2023-02-28T05:18:18;13.43;;;7.85;;
64791;SDS011;51226;47.504;19.074;2023-02-28T05:21:34;13.60;;;8.68;;
64791;SDS011;51226;47.504;19.074;2023-02-28T05:24:38;11.52;;;8.05;;
64791;SDS011;51226;47.504;19.074;2023-02-28T05:27:41;11.45;;;8.45;;
64791;SDS011;51226;47.504;19.074;2023-02-28T05:30:44;11.07;;;8.13;;
64791;SDS011;51226;47.504;19.074;2023-02-28T05:33:47;9.18;;;7.53;;
64791;SDS011;51226;47.504;19.074;2023-02-28T05:36:50;9.63;;;7.28;;
64791;SDS011;51226;47.504;19.074;2023-02-28T05:39:53;12.75;;;8.32;;
64791;SDS011;51226;47.504;19.074;2023-02-28T05:42:56;9.68;;;8.68;;
64791;SDS011;51226;47.504;19.074;2023-02-28T05:45:59;11.35;;;8.50;;
64791;SDS011;51226;47.504;19.074;2023-02-28T05:49:05;11.32;;;8.38;;
64791;SDS011;51226;47.504;19.074;2023-02-28T05:52:08;13.60;;;8.27;;
64791;SDS011;51226;47.504;19.074;2023-02-28T05:55:11;13.88;;;9.02;;
64791;SDS011;51226;47.504;19.074;2023-02-28T05:58:14;10.52;;;8.23;;
64791;SDS011;51226;47.504;19.074;2023-02-28T06:01:21;14.45;;;9.80;;
64791;SDS011;51226;47.504;19.074;2023-02-28T06:04:26;14.20;;;8.98;;
64791;SDS011;51226;47.504;19.074;2023-02-28T06:07:33;13.10;;;8.73;;
64791;SDS011;51226;47.504;19.074;2023-02-28T06:10:36;14.35;;;8.82;;
64791;SDS011;51226;47.504;19.074;2023-02-28T06:13:39;11.07;;;7.90;;
64791;SDS011;51226;47.504;19.074;2023-02-28T06:16:42;11.73;;;8.88;;
64791;SDS011;51226;47.504;19.074;2023-02-28T06:19:45;11.95;;;8.27;;
64791;SDS011;51226;47.504;19.074;2023-02-28T06:22:49;11.20;;;8.73;;
64791;SDS011;51226;47.504;19.074;2023-02-28T06:25:53;13.60;;;9.77;;
64791;SDS011;51226;47.504;19.074;2023-02-28T06:29:00;11.18;;;8.50;;
64791;SDS011;51226;47.504;19.074;2023-02-28T06:32:03;10.57;;;8.37;;
64791;SDS011;51226;47.504;19.074;2023-02-28T06:35:06;12.02;;;7.87;;
64791;SDS011;51226;47.504;19.074;2023-02-28T06:38:09;15.70;;;9.40;;
64791;SDS011;51226;47.504;19.074;2023-02-28T06:41:13;11.48;;;8.50;;
64791;SDS011;51226;47.504;19.074;2023-02-28T06:44:16;18.10;;;11.93;;
64791;SDS011;51226;47.504;19.074;2023-02-28T06:47:20;13.15;;;8.35;;
64791;SDS011;51226;47.504;19.074;2023-02-28T06:50:23;12.35;;;8.43;;
64791;SDS011;51226;47.504;19.074;2023-02-28T06:53:26;11.70;;;7.97;;
64791;SDS011;51226;47.504;19.074;2023-02-28T06:56:29;13.23;;;7.80;;
64791;SDS011;51226;47.504;19.074;2023-02-28T06:59:32;14.15;;;8.27;;
64791;SDS011;51226;47.504;19.074;2023-02-28T07:02:35;10.53;;;8.47;;
64791;SDS011;51226;47.504;19.074;2023-02-28T07:05:40;12.18;;;8.55;;
64791;SDS011;51226;47.504;19.074;2023-02-28T07:08:43;10.00;;;7.50;;
64791;SDS011;51226;47.504;19.074;2023-02-28T07:11:47;10.20;;;7.62;;
64791;SDS011;51226;47.504;19.074;2023-02-28T07:14:49;10.23;;;8.23;;
64791;SDS011;51226;47.504;19.074;2023-02-28T07:17:52;13.07;;;8.00;;
64791;SDS011;51226;47.504;19.074;2023-02-28T07:20:55;21.17;;;14.63;;
64791;SDS011;51226;47.504;19.074;2023-02-28T07:27:01;12.52;;;9.05;;
64791;SDS011;51226;47.504;19.074;2023-02-28T07:30:04;11.05;;;8.52;;
64791;SDS011;51226;47.504;19.074;2023-02-28T07:33:07;49.80;;;32.10;;
64791;SDS011;51226;47.504;19.074;2023-02-28T07:36:13;22.95;;;14.65;;
64791;SDS011;51226;47.504;19.074;2023-02-28T07:39:17;12.82;;;9.40;;
64791;SDS011;51226;47.504;19.074;2023-02-28T07:42:20;14.32;;;9.13;;
64791;SDS011;51226;47.504;19.074;2023-02-28T07:45:26;11.80;;;9.10;;
64791;SDS011;51226;47.504;19.074;2023-02-28T07:48:32;14.93;;;9.25;;
64791;SDS011;51226;47.504;19.074;2023-02-28T07:51:35;14.48;;;8.75;;
64791;SDS011;51226;47.504;19.074;2023-02-28T07:54:38;10.88;;;8.65;;
64791;SDS011;51226;47.504;19.074;2023-02-28T07:57:40;15.10;;;8.70;;
64791;SDS011;51226;47.504;19.074;2023-02-28T08:00:44;10.60;;;8.68;;
64791;SDS011;51226;47.504;19.074;2023-02-28T08:03:47;11.25;;;9.05;;
64791;SDS011;51226;47.504;19.074;2023-02-28T08:06:50;10.05;;;8.20;;
64791;SDS011;51226;47.504;19.074;2023-02-28T08:09:55;11.25;;;8.88;;
64791;SDS011;51226;47.504;19.074;2023-02-28T08:12:58;12.15;;;9.27;;
64791;SDS011;51226;47.504;19.074;2023-02-28T08:16:03;14.15;;;9.68;;
64791;SDS011;51226;47.504;19.074;2023-02-28T08:19:06;12.85;;;9.82;;
64791;SDS011;51226;47.504;19.074;2023-02-28T08:22:09;9.70;;;8.63;;
64791;SDS011;51226;47.504;19.074;2023-02-28T08:25:12;9.27;;;8.38;;
64791;SDS011;51226;47.504;19.074;2023-02-28T08:28:15;9.25;;;8.18;;
64791;SDS011;51226;47.504;19.074;2023-02-28T08:31:18;8.80;;;7.87;;
64791;SDS011;51226;47.504;19.074;2023-02-28T08:34:21;11.40;;;8.45;;
64791;SDS011;51226;47.504;19.074;2023-02-28T08:37:25;9.98;;;8.25;;
64791;SDS011;51226;47.504;19.074;2023-02-28T08:40:28;10.63;;;7.70;;
64791;SDS011;51226;47.504;19.074;2023-02-28T08:43:31;11.45;;;7.45;;
64791;SDS011;51226;47.504;19.074;2023-02-28T08:46:34;8.27;;;6.95;;
64791;SDS011;51226;47.504;19.074;2023-02-28T08:49:37;8.10;;;7.15;;
64791;SDS011;51226;47.504;19.074;2023-02-28T08:52:43;8.88;;;7.43;;
64791;SDS011;51226;47.504;19.074;2023-02-28T08:55:46;8.13;;;6.78;;
64791;SDS011;51226;47.504;19.074;2023-02-28T08:58:49;12.13;;;6.65;;
64791;SDS011;51226;47.504;19.074;2023-02-28T09:01:52;7.47;;;5.60;;
64791;SDS011;51226;47.504;19.074;2023-02-28T09:07:57;10.23;;;5.50;;
64791;SDS011;51226;47.504;19.074;2023-02-28T09:11:00;10.00;;;6.40;;
64791;SDS011;51226;47.504;19.074;2023-02-28T09:14:04;5.93;;;5.32;;
64791;SDS011;51226;47.504;19.074;2023-02-28T09:17:07;9.23;;;6.45;;
64791;SDS011;51226;47.504;19.074;2023-02-28T09:23:13;8.50;;;6.68;;
64791;SDS011;51226;47.504;19.074;2023-02-28T09:26:17;7.35;;;6.65;;
64791;SDS011;51226;47.504;19.074;2023-02-28T09:29:22;8.20;;;6.43;;
64791;SDS011;51226;47.504;19.074;2023-02-28T09:32:24;7.05;;;6.35;;
64791;SDS011;51226;47.504;19.074;2023-02-28T09:35:27;7.78;;;6.97;;
64791;SDS011;51226;47.504;19.074;2023-02-28T09:38:30;7.37;;;6.25;;
64791;SDS011;51226;47.504;19.074;2023-02-28T09:41:37;9.15;;;6.93;;
64791;SDS011;51226;47.504;19.074;2023-02-28T09:44:49;7.57;;;6.43;;
64791;SDS011;51226;47.504;19.074;2023-02-28T09:47:54;8.18;;;6.50;;
64791;SDS011;51226;47.504;19.074;2023-02-28T09:51:46;7.85;;;6.22;;
64791;SDS011;51226;47.504;19.074;2023-02-28T09:54:51;7.68;;;6.12;;
64791;SDS011;51226;47.504;19.074;2023-02-28T09:57:54;6.45;;;5.82;;
64791;SDS011;51226;47.504;19.074;2023-02-28T10:01:03;7.68;;;6.87;;
64791;SDS011;51226;47.504;19.074;2023-02-28T10:10:58;8.52;;;6.62;;
64791;SDS011;51226;47.504;19.074;2023-02-28T10:14:12;9.88;;;6.75;;
64791;SDS011;51226;47.504;19.074;2023-02-28T10:17:23;9.23;;;7.37;;
64791;SDS011;51226;47.504;19.074;2023-02-28T10:20:41;8.85;;;6.97;;
64791;SDS011;51226;47.504;19.074;2023-02-28T10:23:46;10.32;;;7.93;;
64791;SDS011;51226;47.504;19.074;2023-02-28T10:26:50;8.82;;;7.93;;
64791;SDS011;51226;47.504;19.074;2023-02-28T10:30:00;9.65;;;7.20;;
64791;SDS011;51226;47.504;19.074;2023-02-28T10:33:04;9.60;;;6.87;;
64791;SDS011;51226;47.504;19.074;2023-02-28T10:36:08;7.75;;;6.40;;
64791;SDS011;51226;47.504;19.074;2023-02-28T10:39:37;7.78;;;6.90;;
64791;SDS011;51226;47.504;19.074;2023-02-28T10:42:42;7.47;;;6.32;;
64791;SDS011;51226;47.504;19.074;2023-02-28T10:49:17;8.27;;;6.85;;
64791;SDS011;51226;47.504;19.074;2023-02-28T10:52:33;9.70;;;7.20;;
64791;SDS011;51226;47.504;19.074;2023-02-28T10:55:40;7.28;;;6.37;;
64791;SDS011;51226;47.504;19.074;2023-02-28T10:58:49;7.62;;;6.60;;
64791;SDS011;51226;47.504;19.074;2023-02-28T11:01:52;8.30;;;6.90;;
64791;SDS011;51226;47.504;19.074;2023-02-28T11:04:55;9.18;;;6.28;;
64791;SDS011;51226;47.504;19.074;2023-02-28T11:08:03;10.52;;;7.12;;
64791;SDS011;51226;47.504;19.074;2023-02-28T11:11:16;6.60;;;5.87;;
64791;SDS011;51226;47.504;19.074;2023-02-28T11:14:27;6.72;;;6.12;;
64791;SDS011;51226;47.504;19.074;2023-02-28T11:17:33;8.68;;;7.87;;
64791;SDS011;51226;47.504;19.074;2023-02-28T11:23:40;7.32;;;6.30;;
64791;SDS011;51226;47.504;19.074;2023-02-28T11:26:45;8.02;;;6.93;;
64791;SDS011;51226;47.504;19.074;2023-02-28T11:29:50;9.50;;;6.87;;
64791;SDS011;51226;47.504;19.074;2023-02-28T11:32:54;9.82;;;6.95;;
64791;SDS011;51226;47.504;19.074;2023-02-28T11:36:07;9.02;;;6.90;;
64791;SDS011;51226;47.504;19.074;2023-02-28T11:39:13;10.77;;;7.62;;
64791;SDS011;51226;47.504;19.074;2023-02-28T11:42:23;10.80;;;7.37;;
64791;SDS011;51226;47.504;19.074;2023-02-28T11:48:54;9.43;;;6.97;;
64791;SDS011;51226;47.504;19.074;2023-02-28T11:52:29;9.48;;;7.43;;
64791;SDS011;51226;47.504;19.074;2023-02-28T11:55:57;8.85;;;7.20;;
64791;SDS011;51226;47.504;19.074;2023-02-28T11:59:21;10.68;;;7.07;;
64791;SDS011;51226;47.504;19.074;2023-02-28T12:19:05;7.45;;;6.18;;
64791;SDS011;51226;47.504;19.074;2023-02-28T12:22:26;8.27;;;6.62;;
64791;SDS011;51226;47.504;19.074;2023-02-28T12:25:43;8.85;;;6.78;;
64791;SDS011;51226;47.504;19.074;2023-02-28T12:29:30;7.22;;;6.25;;
64791;SDS011;51226;47.504;19.074;2023-02-28T12:32:32;7.28;;;6.32;;
64791;SDS011;51226;47.504;19.074;2023-02-28T12:42:12;9.50;;;6.25;;
64791;SDS011;51226;47.504;19.074;2023-02-28T12:45:43;6.07;;;5.47;;
64791;SDS011;51226;47.504;19.074;2023-02-28T12:48:56;6.25;;;5.65;;
64791;SDS011;51226;47.504;19.074;2023-02-28T12:52:00;10.57;;;6.85;;
64791;SDS011;51226;47.504;19.074;2023-02-28T12:58:41;8.25;;;5.70;;
64791;SDS011;51226;47.504;19.074;2023-02-28T13:12:14;7.18;;;5.72;;
64791;SDS011;51226;47.504;19.074;2023-02-28T13:15:19;9.10;;;6.25;;
64791;SDS011;51226;47.504;19.074;2023-02-28T13:18:31;6.50;;;5.80;;
64791;SDS011;51226;47.504;19.074;2023-02-28T13:21:43;8.15;;;5.35;;
64791;SDS011;51226;47.504;19.074;2023-02-28T13:24:48;6.43;;;5.55;;
64791;SDS011;51226;47.504;19.074;2023-02-28T13:27:53;7.10;;;5.55;;
64791;SDS011;51226;47.504;19.074;2023-02-28T13:31:02;6.85;;;5.68;;
64791;SDS011;51226;47.504;19.074;2023-02-28T13:34:12;6.45;;;5.45;;
64791;SDS011;51226;47.504;19.074;2023-02-28T13:40:30;10.30;;;7.07;;
64791;SDS011;51226;47.504;19.074;2023-02-28T13:53:41;6.55;;;4.70;;
64791;SDS011;51226;47.504;19.074;2023-02-28T14:00:17;6.82;;;5.07;;
64791;SDS011;51226;47.504;19.074;2023-02-28T14:03:32;7.32;;;5.28;;
64791;SDS011;51226;47.504;19.074;2023-02-28T14:06:39;7.45;;;5.37;;
64791;SDS011;51226;47.504;19.074;2023-02-28T14:09:55;9.17;;;5.53;;
64791;SDS011;51226;47.504;19.074;2023-02-28T14:16:47;5.50;;;4.90;;
64791;SDS011;51226;47.504;19.074;2023-02-28T14:19:52;7.18;;;5.40;;
64791;SDS011;51226;47.504;19.074;2023-02-28T14:33:45;6.85;;;6.03;;
64791;SDS011;51226;47.504;19.074;2023-02-28T14:37:20;6.78;;;5.03;;
64791;SDS011;51226;47.504;19.074;2023-02-28T14:40:33;8.35;;;6.03;;
64791;SDS011;51226;47.504;19.074;2023-02-28T14:43:46;12.07;;;5.80;;
64791;SDS011;51226;47.504;19.074;2023-02-28T14:46:57;8.38;;;5.93;;
64791;SDS011;51226;47.504;19.074;2023-02-28T14:50:17;9.98;;;5.65;;
64791;SDS011;51226;47.504;19.074;2023-02-28T14:56:27;7.97;;;5.87;;
64791;SDS011;51226;47.504;19.074;2023-02-28T14:59:36;7.50;;;5.87;;
64791;SDS011;51226;47.504;19.074;2023-02-28T15:02:39;7.43;;;5.93;;
64791;SDS011;51226;47.504;19.074;2023-02-28T15:05:44;8.65;;;6.68;;
64791;SDS011;51226;47.504;19.074;2023-02-28T15:12:13;7.07;;;6.07;;
64791;SDS011;51226;47.504;19.074;2023-02-28T15:15:18;8.15;;;6.45;;
64791;SDS011;51226;47.504;19.074;2023-02-28T15:18:44;11.43;;;6.47;;
64791;SDS011;51226;47.504;19.074;2023-02-28T15:21:50;8.43;;;6.12;;
64791;SDS011;51226;47.504;19.074;2023-02-28T15:24:59;10.50;;;6.32;;
64791;SDS011;51226;47.504;19.074;2023-02-28T15:28:04;8.38;;;6.50;;
64791;SDS011;51226;47.504;19.074;2023-02-28T15:31:18;9.93;;;6.57;;
64791;SDS011;51226;47.504;19.074;2023-02-28T15:34:40;10.88;;;6.35;;
64791;SDS011;51226;47.504;19.074;2023-02-28T15:37:47;9.02;;;7.10;;
64791;SDS011;51226;47.504;19.074;2023-02-28T15:40:54;10.05;;;7.30;;
64791;SDS011;51226;47.504;19.074;2023-02-28T15:47:27;11.30;;;7.40;;
64791;SDS011;51226;47.504;19.074;2023-02-28T15:50:32;9.90;;;7.00;;
64791;SDS011;51226;47.504;19.074;2023-02-28T15:53:36;9.40;;;7.15;;
64791;SDS011;51226;47.504;19.074;2023-02-28T15:56:56;10.48;;;7.60;;
64791;SDS011;51226;47.504;19.074;2023-02-28T16:00:04;10.90;;;8.20;;
64791;SDS011;51226;47.504;19.074;2023-02-28T16:03:32;10.75;;;8.05;;
64791;SDS011;51226;47.504;19.074;2023-02-28T16:09:46;12.25;;;7.68;;
64791;SDS011;51226;47.504;19.074;2023-02-28T16:12:52;10.77;;;8.27;;
64791;SDS011;51226;47.504;19.074;2023-02-28T16:15:56;11.38;;;8.23;;
64791;SDS011;51226;47.504;19.074;2023-02-28T16:18:59;9.40;;;7.57;;
64791;SDS011;51226;47.504;19.074;2023-02-28T16:22:01;12.17;;;7.63;;
64791;SDS011;51226;47.504;19.074;2023-02-28T16:25:05;13.80;;;9.35;;
64791;SDS011;51226;47.504;19.074;2023-02-28T16:28:19;12.40;;;8.77;;
64791;SDS011;51226;47.504;19.074;2023-02-28T16:31:27;9.23;;;7.72;;
64791;SDS011;51226;47.504;19.074;2023-02-28T16:34:30;10.38;;;8.02;;
64791;SDS011;51226;47.504;19.074;2023-02-28T16:37:34;10.43;;;7.70;;
64791;SDS011;51226;47.504;19.074;2023-02-28T16:40:36;10.13;;;7.70;;
64791;SDS011;51226;47.504;19.074;2023-02-28T16:46:42;10.75;;;7.72;;
64791;SDS011;51226;47.504;19.074;2023-02-28T16:49:45;10.55;;;7.78;;
64791;SDS011;51226;47.504;19.074;2023-02-28T16:52:50;9.52;;;7.37;;
64791;SDS011;51226;47.504;19.074;2023-02-28T16:55:57;12.90;;;7.95;;
64791;SDS011;51226;47.504;19.074;2023-02-28T16:59:00;12.70;;;8.40;;
64791;SDS011;51226;47.504;19.074;2023-02-28T17:02:08;12.10;;;8.38;;
64791;SDS011;51226;47.504;19.074;2023-02-28T17:05:14;12.70;;;9.80;;
64791;SDS011;51226;47.504;19.074;2023-02-28T17:08:18;11.55;;;8.90;;
64791;SDS011;51226;47.504;19.074;2023-02-28T17:11:21;12.75;;;8.60;;
64791;SDS011;51226;47.504;19.074;2023-02-28T17:14:28;14.05;;;9.05;;
64791;SDS011;51226;47.504;19.074;2023-02-28T17:17:30;12.07;;;8.85;;
64791;SDS011;51226;47.504;19.074;2023-02-28T17:20:33;10.50;;;8.75;;
64791;SDS011;51226;47.504;19.074;2023-02-28T17:23:36;11.63;;;8.83;;
64791;SDS011;51226;47.504;19.074;2023-02-28T17:26:40;13.13;;;9.95;;
64791;SDS011;51226;47.504;19.074;2023-02-28T17:29:44;12.80;;;9.70;;
64791;SDS011;51226;47.504;19.074;2023-02-28T17:35:50;15.07;;;9.43;;
64791;SDS011;51226;47.504;19.074;2023-02-28T17:38:53;13.20;;;9.88;;
64791;SDS011;51226;47.504;19.074;2023-02-28T17:42:00;13.77;;;9.82;;
64791;SDS011;51226;47.504;19.074;2023-02-28T17:45:03;14.48;;;10.30;;
64791;SDS011;51226;47.504;19.074;2023-02-28T17:48:08;14.45;;;9.90;;
64791;SDS011;51226;47.504;19.074;2023-02-28T17:51:14;14.60;;;10.57;;
64791;SDS011;51226;47.504;19.074;2023-02-28T17:57:20;13.25;;;9.70;;
64791;SDS011;51226;47.504;19.074;2023-02-28T18:00:23;13.63;;;10.10;;
64791;SDS011;51226;47.504;19.074;2023-02-28T18:06:37;14.77;;;9.80;;
64791;SDS011;51226;47.504;19.074;2023-02-28T18:09:52;15.90;;;10.02;;
64791;SDS011;51226;47.504;19.074;2023-02-28T18:12:55;13.87;;;10.63;;
64791;SDS011;51226;47.504;19.074;2023-02-28T18:15:58;16.08;;;11.38;;
64791;SDS011;51226;47.504;19.074;2023-02-28T18:19:01;14.93;;;11.02;;
64791;SDS011;51226;47.504;19.074;2023-02-28T18:22:05;14.10;;;10.50;;
64791;SDS011;51226;47.504;19.074;2023-02-28T18:25:11;14.48;;;11.18;;
64791;SDS011;51226;47.504;19.074;2023-02-28T18:28:18;15.35;;;10.57;;
64791;SDS011;51226;47.504;19.074;2023-02-28T18:31:21;14.03;;;10.83;;
64791;SDS011;51226;47.504;19.074;2023-02-28T18:34:24;12.13;;;10.43;;
64791;SDS011;51226;47.504;19.074;2023-02-28T18:37:27;11.85;;;9.82;;
64791;SDS011;51226;47.504;19.074;2023-02-28T18:40:31;14.70;;;10.20;;
64791;SDS011;51226;47.504;19.074;2023-02-28T18:43:34;12.65;;;10.25;;
64791;SDS011;51226;47.504;19.074;2023-02-28T18:46:42;13.25;;;10.15;;
64791;SDS011;51226;47.504;19.074;2023-02-28T18:49:44;15.73;;;10.30;;
64791;SDS011;51226;47.504;19.074;2023-02-28T18:52:49;13.85;;;10.00;;
64791;SDS011;51226;47.504;19.074;2023-02-28T18:55:52;13.68;;;10.20;;
64791;SDS011;51226;47.504;19.074;2023-02-28T18:58:55;15.90;;;10.18;;
64791;SDS011;51226;47.504;19.074;2023-02-28T19:01:58;12.47;;;9.97;;
64791;SDS011;51226;47.504;19.074;2023-02-28T19:05:01;14.77;;;10.07;;
64791;SDS011;51226;47.504;19.074;2023-02-28T19:08:04;14.40;;;10.07;;
64791;SDS011;51226;47.504;19.074;2023-02-28T19:11:08;12.48;;;10.68;;
64791;SDS011;51226;47.504;19.074;2023-02-28T19:14:12;15.68;;;10.85;;
64791;SDS011;51226;47.504;19.074;2023-02-28T19:17:15;13.73;;;10.23;;
64791;SDS011;51226;47.504;19.074;2023-02-28T19:20:18;16.60;;;11.20;;
64791;SDS011;51226;47.504;19.074;2023-02-28T19:23:21;15.43;;;10.77;;
64791;SDS011;51226;47.504;19.074;2023-02-28T19:26:24;12.60;;;10.50;;
64791;SDS011;51226;47.504;19.074;2023-02-28T19:29:28;12.52;;;10.32;;
64791;SDS011;51226;47.504;19.074;2023-02-28T19:32:31;13.37;;;9.80;;
64791;SDS011;51226;47.504;19.074;2023-02-28T19:35:34;12.75;;;9.45;;
64791;SDS011;51226;47.504;19.074;2023-02-28T19:38:37;13.10;;;10.10;;
64791;SDS011;51226;47.504;19.074;2023-02-28T19:41:41;13.82;;;11.57;;
64791;SDS011;51226;47.504;19.074;2023-02-28T19:44:44;14.63;;;10.67;;
64791;SDS011;51226;47.504;19.074;2023-02-28T19:47:47;15.98;;;11.40;;
64791;SDS011;51226;47.504;19.074;2023-02-28T19:50:50;13.35;;;9.73;;
64791;SDS011;51226;47.504;19.074;2023-02-28T19:53:57;15.20;;;10.10;;
64791;SDS011;51226;47.504;19.074;2023-02-28T19:57:00;13.13;;;10.32;;
64791;SDS011;51226;47.504;19.074;2023-02-28T20:00:04;16.10;;;10.77;;
64791;SDS011;51226;47.504;19.074;2023-02-28T20:03:13;14.98;;;10.32;;
64791;SDS011;51226;47.504;19.074;2023-02-28T20:06:17;15.23;;;11.43;;
64791;SDS011;51226;47.504;19.074;2023-02-28T20:09:19;14.23;;;10.65;;
64791;SDS011;51226;47.504;19.074;2023-02-28T20:12:23;15.63;;;10.98;;
64791;SDS011;51226;47.504;19.074;2023-02-28T20:15:26;14.40;;;10.65;;
64791;SDS011;51226;47.504;19.074;2023-02-28T20:18:29;15.88;;;11.05;;
64791;SDS011;51226;47.504;19.074;2023-02-28T20:21:32;24.87;;;16.58;;
64791;SDS011;51226;47.504;19.074;2023-02-28T20:27:38;13.83;;;10.73;;
64791;SDS011;51226;47.504;19.074;2023-02-28T20:30:42;14.82;;;10.90;;
64791;SDS011;51226;47.504;19.074;2023-02-28T20:33:46;17.52;;;11.43;;
64791;SDS011;51226;47.504;19.074;2023-02-28T20:36:50;16.80;;;11.27;;
64791;SDS011;51226;47.504;19.074;2023-02-28T20:39:53;17.20;;;12.87;;
64791;SDS011;51226;47.504;19.074;2023-02-28T20:42:58;20.30;;;12.37;;
64791;SDS011;51226;47.504;19.074;2023-02-28T20:46:01;14.80;;;11.07;;
64791;SDS011;51226;47.504;19.074;2023-02-28T20:52:07;14.95;;;10.52;;
64791;SDS011;51226;47.504;19.074;2023-02-28T20:55:10;15.75;;;12.27;;